PWSweather.com
Personal Weather Stations
Station Observations
KOHROME3
Rome, OH 44085

Rome, OH 44085

Lat: 41.631, Lon: -80.828

Elevation: 872

Station Type: Ambient Weather WS-2902 Osprey

http://44085weather.com

High Low Average
Temperature 65.1°F18.4°C 27.3°F-2.6°C 45.1°F7.3°C
Dew Point 46.4°F8.0°C 2.0°F-16.7°C 24.6°F-4.1°C
Winds 8.1 mph 13.0 kmh Calm Calm 2.0 mph WNW3.2 kmh WNW
Wind Gusts 8.1 mph13.0 kmh -- 2.0 mph3.2 kmh
Humidity 99% 14% 49%
Pressure 30.27 in1025.1 mb 30.21 in1023.0 mb -
Precipitation 0.00 in0.0 mm - -
Hour Temp Dew Point Humidity Winds Wind Gusts Pressure Precip Precip Rate Daily Precip Total
12:00 AM 32.0°F0.0°C 24.6°F-4.1°C 74% 1.2 mph NW1.9 kmh NW 1.2 mph1.9 kmh 30.27 in1025.1 mb - 0.00 in0.0 mm 0.00 in0.0 mm
12:10 AM 32.0°F0.0°C 24.6°F-4.1°C 74% Calm Calm -- 30.27 in1025.1 mb - 0.00 in0.0 mm 0.00 in0.0 mm
12:15 AM 32.0°F0.0°C 24.6°F-4.1°C 74% Calm Calm 1.2 mph1.9 kmh 30.27 in1025.1 mb - 0.00 in0.0 mm 0.00 in0.0 mm
12:20 AM 32.0°F0.0°C 24.6°F-4.1°C 74% 1.2 mph NW1.9 kmh NW 1.2 mph1.9 kmh 30.27 in1025.1 mb - 0.00 in0.0 mm 0.00 in0.0 mm
12:25 AM 31.1°F-0.5°C 21.1°F-6.1°C 66% Calm Calm -- 30.27 in1025.1 mb - 0.00 in0.0 mm 0.00 in0.0 mm
12:30 AM 31.1°F-0.5°C 15.9°F-8.9°C 53% Calm Calm -- 30.27 in1025.1 mb - 0.00 in0.0 mm 0.00 in0.0 mm
12:35 AM 30.0°F-1.1°C 14.1°F-9.9°C 51% Calm Calm -- 30.27 in1025.1 mb - 0.00 in0.0 mm 0.00 in0.0 mm
12:40 AM 30.0°F-1.1°C 14.1°F-9.9°C 51% Calm Calm -- 30.27 in1025.1 mb - 0.00 in0.0 mm 0.00 in0.0 mm
12:45 AM 30.0°F-1.1°C 14.1°F-9.9°C 51% Calm Calm -- 30.27 in1025.1 mb - 0.00 in0.0 mm 0.00 in0.0 mm
12:50 AM 29.7°F-1.3°C 14.2°F-9.9°C 52% Calm Calm -- 30.27 in1025.1 mb - 0.00 in0.0 mm 0.00 in0.0 mm
12:55 AM 29.7°F-1.3°C 14.2°F-9.9°C 52% Calm Calm -- 30.27 in1025.1 mb - 0.00 in0.0 mm 0.00 in0.0 mm
01:00 AM 29.8°F-1.2°C 13.9°F-10.1°C 51% Calm Calm -- 30.27 in1025.1 mb - 0.00 in0.0 mm 0.00 in0.0 mm
01:10 AM 29.8°F-1.2°C 13.9°F-10.1°C 51% Calm Calm -- 30.27 in1025.1 mb - 0.00 in0.0 mm 0.00 in0.0 mm
01:15 AM 29.3°F-1.5°C 13.8°F-10.1°C 52% Calm Calm -- 30.24 in1024.0 mb - 0.00 in0.0 mm 0.00 in0.0 mm
01:20 AM 29.2°F-1.6°C 13.7°F-10.2°C 52% Calm Calm -- 30.24 in1024.0 mb - 0.00 in0.0 mm 0.00 in0.0 mm
01:25 AM 28.9°F-1.7°C 13.9°F-10.1°C 53% Calm Calm -- 30.24 in1024.0 mb - 0.00 in0.0 mm 0.00 in0.0 mm
01:30 AM 29.5°F-1.4°C 15.3°F-9.3°C 55% Calm Calm -- 30.24 in1024.0 mb - 0.00 in0.0 mm 0.00 in0.0 mm
01:35 AM 29.5°F-1.4°C 19.5°F-6.9°C 66% Calm Calm -- 30.24 in1024.0 mb - 0.00 in0.0 mm 0.00 in0.0 mm
01:40 AM 29.8°F-1.2°C 13.9°F-10.1°C 51% 1.2 mph NW1.9 kmh NW 1.2 mph1.9 kmh 30.24 in1024.0 mb - 0.00 in0.0 mm 0.00 in0.0 mm
01:45 AM 30.0°F-1.1°C 14.0°F-10.0°C 51% 1.2 mph NW1.9 kmh NW 1.2 mph1.9 kmh 30.24 in1024.0 mb - 0.00 in0.0 mm 0.00 in0.0 mm
01:50 AM 30.2°F-1.0°C 13.8°F-10.1°C 50% Calm Calm -- 30.24 in1024.0 mb - 0.00 in0.0 mm 0.00 in0.0 mm
01:55 AM 30.0°F-1.1°C 15.8°F-9.0°C 55% 1.2 mph NW1.9 kmh NW 1.2 mph1.9 kmh 30.24 in1024.0 mb - 0.00 in0.0 mm 0.00 in0.0 mm
02:00 AM 30.0°F-1.1°C 23.1°F-4.9°C 75% 1.2 mph NW1.9 kmh NW 1.2 mph1.9 kmh 30.24 in1024.0 mb - 0.00 in0.0 mm 0.00 in0.0 mm
02:10 AM 28.8°F-1.8°C 12.0°F-11.1°C 49% Calm Calm -- 30.24 in1024.0 mb - 0.00 in0.0 mm 0.00 in0.0 mm
02:15 AM 28.8°F-1.8°C 12.0°F-11.1°C 49% Calm Calm -- 30.24 in1024.0 mb - 0.00 in0.0 mm 0.00 in0.0 mm
02:20 AM 28.8°F-1.8°C 12.0°F-11.1°C 49% Calm Calm -- 30.24 in1024.0 mb - 0.00 in0.0 mm 0.00 in0.0 mm
02:25 AM 28.8°F-1.8°C 12.0°F-11.1°C 49% Calm Calm -- 30.24 in1024.0 mb - 0.00 in0.0 mm 0.00 in0.0 mm
02:30 AM 28.6°F-1.9°C 12.3°F-10.9°C 50% Calm Calm -- 30.24 in1024.0 mb - 0.00 in0.0 mm 0.00 in0.0 mm
02:35 AM 28.4°F-2.0°C 12.1°F-11.1°C 50% Calm Calm -- 30.24 in1024.0 mb - 0.00 in0.0 mm 0.00 in0.0 mm
02:40 AM 28.4°F-2.0°C 12.1°F-11.1°C 50% Calm Calm -- 30.24 in1024.0 mb - 0.00 in0.0 mm 0.00 in0.0 mm
02:45 AM 28.4°F-2.0°C 12.1°F-11.1°C 50% Calm Calm -- 30.24 in1024.0 mb - 0.00 in0.0 mm 0.00 in0.0 mm
02:50 AM 28.4°F-2.0°C 12.1°F-11.1°C 50% Calm Calm -- 30.24 in1024.0 mb - 0.00 in0.0 mm 0.00 in0.0 mm
02:55 AM 29.3°F-1.5°C 21.1°F-6.1°C 71% Calm Calm -- 30.24 in1024.0 mb - 0.00 in0.0 mm 0.00 in0.0 mm
03:00 AM 29.3°F-1.5°C 21.1°F-6.1°C 71% Calm Calm -- 30.24 in1024.0 mb - 0.00 in0.0 mm 0.00 in0.0 mm
03:10 AM 28.6°F-1.9°C 12.7°F-10.7°C 51% Calm Calm -- 30.24 in1024.0 mb - 0.00 in0.0 mm 0.00 in0.0 mm
03:15 AM 28.6°F-1.9°C 12.3°F-10.9°C 50% Calm Calm -- 30.24 in1024.0 mb - 0.00 in0.0 mm 0.00 in0.0 mm
03:20 AM 28.8°F-1.8°C 12.0°F-11.1°C 49% Calm Calm -- 30.24 in1024.0 mb - 0.00 in0.0 mm 0.00 in0.0 mm
03:25 AM 29.5°F-1.4°C 14.4°F-9.8°C 53% Calm Calm -- 30.24 in1024.0 mb - 0.00 in0.0 mm 0.00 in0.0 mm
03:30 AM 29.5°F-1.4°C 21.2°F-6.0°C 71% Calm Calm -- 30.24 in1024.0 mb - 0.00 in0.0 mm 0.00 in0.0 mm
03:35 AM 28.9°F-1.7°C 17.5°F-8.1°C 62% Calm Calm -- 30.24 in1024.0 mb - 0.00 in0.0 mm 0.00 in0.0 mm
03:40 AM 28.8°F-1.8°C 17.4°F-8.1°C 62% Calm Calm -- 30.24 in1024.0 mb - 0.00 in0.0 mm 0.00 in0.0 mm
03:45 AM 28.8°F-1.8°C 12.0°F-11.1°C 49% Calm Calm -- 30.24 in1024.0 mb - 0.00 in0.0 mm 0.00 in0.0 mm
03:50 AM 28.2°F-2.1°C 12.4°F-10.9°C 51% Calm Calm -- 30.24 in1024.0 mb - 0.00 in0.0 mm 0.00 in0.0 mm
03:55 AM 28.2°F-2.1°C 12.4°F-10.9°C 51% Calm Calm -- 30.24 in1024.0 mb - 0.00 in0.0 mm 0.00 in0.0 mm
04:00 AM 28.6°F-1.9°C 12.3°F-10.9°C 50% Calm Calm -- 30.24 in1024.0 mb - 0.00 in0.0 mm 0.00 in0.0 mm
04:10 AM 29.1°F-1.6°C 21.2°F-6.0°C 72% Calm Calm -- 30.24 in1024.0 mb - 0.00 in0.0 mm 0.00 in0.0 mm
04:15 AM 29.7°F-1.3°C 24.8°F-4.0°C 82% 1.2 mph NW1.9 kmh NW 1.2 mph1.9 kmh 30.24 in1024.0 mb - 0.00 in0.0 mm 0.00 in0.0 mm
04:20 AM 29.7°F-1.3°C 24.8°F-4.0°C 82% Calm Calm 1.2 mph1.9 kmh 30.24 in1024.0 mb - 0.00 in0.0 mm 0.00 in0.0 mm
04:25 AM 29.7°F-1.3°C 24.8°F-4.0°C 82% Calm Calm -- 30.24 in1024.0 mb - 0.00 in0.0 mm 0.00 in0.0 mm
04:30 AM 30.0°F-1.1°C 23.4°F-4.8°C 76% Calm Calm -- 30.24 in1024.0 mb - 0.00 in0.0 mm 0.00 in0.0 mm
04:35 AM 30.0°F-1.1°C 21.1°F-6.1°C 69% Calm Calm -- 30.24 in1024.0 mb - 0.00 in0.0 mm 0.00 in0.0 mm
04:40 AM 30.2°F-1.0°C 22.9°F-5.1°C 74% Calm Calm -- 30.24 in1024.0 mb - 0.00 in0.0 mm 0.00 in0.0 mm
04:45 AM 29.8°F-1.2°C 22.9°F-5.1°C 75% Calm Calm -- 30.24 in1024.0 mb - 0.00 in0.0 mm 0.00 in0.0 mm
04:50 AM 29.8°F-1.2°C 22.9°F-5.1°C 75% Calm Calm -- 30.24 in1024.0 mb - 0.00 in0.0 mm 0.00 in0.0 mm
04:55 AM 29.8°F-1.2°C 18.0°F-7.8°C 61% Calm Calm -- 30.24 in1024.0 mb - 0.00 in0.0 mm 0.00 in0.0 mm
05:00 AM 29.8°F-1.2°C 17.6°F-8.0°C 60% Calm Calm -- 30.24 in1024.0 mb - 0.00 in0.0 mm 0.00 in0.0 mm
05:10 AM 28.2°F-2.1°C 12.4°F-10.9°C 51% Calm Calm -- 30.24 in1024.0 mb - 0.00 in0.0 mm 0.00 in0.0 mm
05:15 AM 28.2°F-2.1°C 12.4°F-10.9°C 51% Calm Calm -- 30.24 in1024.0 mb - 0.00 in0.0 mm 0.00 in0.0 mm
05:20 AM 29.3°F-1.5°C 17.5°F-8.1°C 61% 1.2 mph NW1.9 kmh NW 1.2 mph1.9 kmh 30.24 in1024.0 mb - 0.00 in0.0 mm 0.00 in0.0 mm
05:25 AM 29.1°F-1.6°C 17.3°F-8.2°C 61% Calm Calm 1.2 mph1.9 kmh 30.24 in1024.0 mb - 0.00 in0.0 mm 0.00 in0.0 mm
05:30 AM 28.6°F-1.9°C 12.3°F-10.9°C 50% Calm Calm -- 30.24 in1024.0 mb - 0.00 in0.0 mm 0.00 in0.0 mm
05:35 AM 28.6°F-1.9°C 12.3°F-10.9°C 50% Calm Calm -- 30.24 in1024.0 mb - 0.00 in0.0 mm 0.00 in0.0 mm
05:40 AM 28.6°F-1.9°C 12.3°F-10.9°C 50% Calm Calm -- 30.24 in1024.0 mb - 0.00 in0.0 mm 0.00 in0.0 mm
05:45 AM 28.0°F-2.2°C 12.2°F-11.0°C 51% Calm Calm -- 30.24 in1024.0 mb - 0.00 in0.0 mm 0.00 in0.0 mm
05:50 AM 28.0°F-2.2°C 12.2°F-11.0°C 51% Calm Calm -- 30.24 in1024.0 mb - 0.00 in0.0 mm 0.00 in0.0 mm
05:55 AM 28.2°F-2.1°C 12.4°F-10.9°C 51% Calm Calm -- 30.24 in1024.0 mb - 0.00 in0.0 mm 0.00 in0.0 mm
06:00 AM 27.7°F-2.4°C 12.3°F-10.9°C 52% Calm Calm -- 30.24 in1024.0 mb - 0.00 in0.0 mm 0.00 in0.0 mm
06:10 AM 27.9°F-2.3°C 12.1°F-11.1°C 51% Calm Calm -- 30.24 in1024.0 mb - 0.00 in0.0 mm 0.00 in0.0 mm
06:15 AM 27.9°F-2.3°C 12.1°F-11.1°C 51% Calm Calm -- 30.24 in1024.0 mb - 0.00 in0.0 mm 0.00 in0.0 mm
06:20 AM 27.5°F-2.5°C 12.2°F-11.0°C 52% 1.2 mph NW1.9 kmh NW 1.2 mph1.9 kmh 30.24 in1024.0 mb - 0.00 in0.0 mm 0.00 in0.0 mm
06:25 AM 27.5°F-2.5°C 12.2°F-11.0°C 52% 1.2 mph NW1.9 kmh NW 1.2 mph1.9 kmh 30.24 in1024.0 mb - 0.00 in0.0 mm 0.00 in0.0 mm
06:30 AM 27.3°F-2.6°C 12.0°F-11.1°C 52% Calm Calm -- 30.24 in1024.0 mb - 0.00 in0.0 mm 0.00 in0.0 mm
06:35 AM 27.3°F-2.6°C 12.0°F-11.1°C 52% Calm Calm -- 30.24 in1024.0 mb - 0.00 in0.0 mm 0.00 in0.0 mm
06:40 AM 27.5°F-2.5°C 12.2°F-11.0°C 52% Calm Calm -- 30.24 in1024.0 mb - 0.00 in0.0 mm 0.00 in0.0 mm
06:45 AM 27.8°F-2.3°C 12.0°F-11.1°C 51% Calm Calm -- 30.24 in1024.0 mb - 0.00 in0.0 mm 0.00 in0.0 mm
06:50 AM 27.9°F-2.3°C 12.1°F-11.1°C 51% Calm Calm -- 30.24 in1024.0 mb - 0.00 in0.0 mm 0.00 in0.0 mm
06:55 AM 27.9°F-2.3°C 12.1°F-11.1°C 51% Calm Calm -- 30.24 in1024.0 mb - 0.00 in0.0 mm 0.00 in0.0 mm
07:00 AM 27.9°F-2.3°C 12.1°F-11.1°C 51% Calm Calm -- 30.24 in1024.0 mb - 0.00 in0.0 mm 0.00 in0.0 mm
07:10 AM 28.2°F-2.1°C 12.4°F-10.9°C 51% Calm Calm -- 30.27 in1025.1 mb - 0.00 in0.0 mm 0.00 in0.0 mm
07:15 AM 29.2°F-1.6°C 13.7°F-10.2°C 52% Calm Calm -- 30.27 in1025.1 mb - 0.00 in0.0 mm 0.00 in0.0 mm
07:20 AM 29.3°F-1.5°C 13.8°F-10.1°C 52% Calm Calm -- 30.27 in1025.1 mb - 0.00 in0.0 mm 0.00 in0.0 mm
07:25 AM 29.3°F-1.5°C 13.8°F-10.1°C 52% Calm Calm -- 30.27 in1025.1 mb - 0.00 in0.0 mm 0.00 in0.0 mm
07:30 AM 31.3°F-0.4°C 25.5°F-3.6°C 79% 1.2 mph NW1.9 kmh NW 1.2 mph1.9 kmh 30.27 in1025.1 mb - 0.00 in0.0 mm 0.00 in0.0 mm
07:35 AM 31.3°F-0.4°C 30.3°F-0.9°C 96% 1.2 mph NW1.9 kmh NW 1.2 mph1.9 kmh 30.27 in1025.1 mb - 0.00 in0.0 mm 0.00 in0.0 mm
07:40 AM 33.0°F0.6°C 32.0°F0.0°C 96% 1.2 mph NW1.9 kmh NW 1.2 mph1.9 kmh 30.27 in1025.1 mb - 0.00 in0.0 mm 0.00 in0.0 mm
07:45 AM 33.1°F0.6°C 32.1°F0.1°C 96% 1.2 mph NW1.9 kmh NW 1.2 mph1.9 kmh 30.27 in1025.1 mb - 0.00 in0.0 mm 0.00 in0.0 mm
07:50 AM 33.6°F0.9°C 32.6°F0.3°C 96% 1.2 mph NW1.9 kmh NW 1.2 mph1.9 kmh 30.27 in1025.1 mb - 0.00 in0.0 mm 0.00 in0.0 mm
07:55 AM 34.7°F1.5°C 3.2°F-16.0°C 26% 1.2 mph NW1.9 kmh NW 1.2 mph1.9 kmh 30.27 in1025.1 mb - 0.00 in0.0 mm 0.00 in0.0 mm
08:00 AM 35.1°F1.7°C 3.6°F-15.8°C 26% 1.2 mph NW1.9 kmh NW 1.2 mph1.9 kmh 30.27 in1025.1 mb - 0.00 in0.0 mm 0.00 in0.0 mm
08:10 AM 36.9°F2.7°C 21.3°F-5.9°C 53% 1.2 mph NW1.9 kmh NW 1.2 mph1.9 kmh 30.27 in1025.1 mb - 0.00 in0.0 mm 0.00 in0.0 mm
08:15 AM 38.1°F3.4°C 37.3°F2.9°C 97% 1.2 mph NW1.9 kmh NW 1.2 mph1.9 kmh 30.27 in1025.1 mb - 0.00 in0.0 mm 0.00 in0.0 mm
08:20 AM 38.1°F3.4°C 37.3°F2.9°C 97% 1.2 mph NW1.9 kmh NW 1.2 mph1.9 kmh 30.27 in1025.1 mb - 0.00 in0.0 mm 0.00 in0.0 mm
08:25 AM 39.6°F4.2°C 31.3°F-0.4°C 72% 2.3 mph S3.7 kmh S 2.3 mph3.7 kmh 30.27 in1025.1 mb - 0.00 in0.0 mm 0.00 in0.0 mm
08:30 AM 39.6°F4.2°C 26.4°F-3.1°C 59% 2.3 mph S3.7 kmh S 2.3 mph3.7 kmh 30.27 in1025.1 mb - 0.00 in0.0 mm 0.00 in0.0 mm
08:35 AM 41.2°F5.1°C 35.2°F1.8°C 79% 3.5 mph S5.6 kmh S 3.5 mph5.6 kmh 30.27 in1025.1 mb - 0.00 in0.0 mm 0.00 in0.0 mm
08:40 AM 41.2°F5.1°C 40.9°F4.9°C 99% 3.5 mph S5.6 kmh S 3.5 mph5.6 kmh 30.27 in1025.1 mb - 0.00 in0.0 mm 0.00 in0.0 mm
08:45 AM 43.3°F6.3°C 42.8°F6.0°C 98% 1.2 mph S1.9 kmh S 1.2 mph1.9 kmh 30.27 in1025.1 mb - 0.00 in0.0 mm 0.00 in0.0 mm
08:50 AM 43.3°F6.3°C 42.8°F6.0°C 98% 1.2 mph S1.9 kmh S 1.2 mph1.9 kmh 30.27 in1025.1 mb - 0.00 in0.0 mm 0.00 in0.0 mm
08:55 AM 44.5°F6.9°C 44.3°F6.8°C 99% 1.2 mph S1.9 kmh S 1.2 mph1.9 kmh 30.27 in1025.1 mb - 0.00 in0.0 mm 0.00 in0.0 mm
09:00 AM 44.8°F7.1°C 44.5°F6.9°C 99% 1.2 mph S1.9 kmh S 1.2 mph1.9 kmh 30.27 in1025.1 mb - 0.00 in0.0 mm 0.00 in0.0 mm
09:10 AM 46.2°F7.9°C 46.0°F7.8°C 99% Calm Calm -- 30.27 in1025.1 mb - 0.00 in0.0 mm 0.00 in0.0 mm
09:15 AM 46.7°F8.2°C 46.4°F8.0°C 99% Calm Calm -- 30.27 in1025.1 mb - 0.00 in0.0 mm 0.00 in0.0 mm
09:20 AM 47.5°F8.6°C 2.0°F-16.7°C 15% Calm Calm -- 30.27 in1025.1 mb - 0.00 in0.0 mm 0.00 in0.0 mm
09:25 AM 47.8°F8.8°C 2.3°F-16.5°C 15% Calm Calm 1.2 mph1.9 kmh 30.27 in1025.1 mb - 0.00 in0.0 mm 0.00 in0.0 mm
09:30 AM 50.2°F10.1°C 2.7°F-16.3°C 14% 1.2 mph S1.9 kmh S 1.2 mph1.9 kmh 30.27 in1025.1 mb - 0.00 in0.0 mm 0.00 in0.0 mm
09:35 AM 50.2°F10.1°C 2.7°F-16.3°C 14% 1.2 mph S1.9 kmh S 1.2 mph1.9 kmh 30.27 in1025.1 mb - 0.00 in0.0 mm 0.00 in0.0 mm
09:40 AM 51.3°F10.7°C 30.6°F-0.8°C 45% 1.2 mph S1.9 kmh S 1.2 mph1.9 kmh 30.27 in1025.1 mb - 0.00 in0.0 mm 0.00 in0.0 mm
09:45 AM 51.3°F10.7°C 32.2°F0.1°C 48% 1.2 mph S1.9 kmh S 1.2 mph1.9 kmh 30.27 in1025.1 mb - 0.00 in0.0 mm 0.00 in0.0 mm
09:50 AM 51.6°F10.9°C 39.0°F3.9°C 62% 1.2 mph S1.9 kmh S 1.2 mph1.9 kmh 30.27 in1025.1 mb - 0.00 in0.0 mm 0.00 in0.0 mm
09:55 AM 51.6°F10.9°C 39.0°F3.9°C 62% 1.2 mph S1.9 kmh S 1.2 mph1.9 kmh 30.27 in1025.1 mb - 0.00 in0.0 mm 0.00 in0.0 mm
10:00 AM 53.4°F11.9°C 42.7°F5.9°C 67% 2.3 mph S3.7 kmh S 2.3 mph3.7 kmh 30.27 in1025.1 mb - 0.00 in0.0 mm 0.00 in0.0 mm
10:10 AM 54.9°F12.7°C 42.9°F6.1°C 64% 1.2 mph S1.9 kmh S 1.2 mph1.9 kmh 30.27 in1025.1 mb - 0.00 in0.0 mm 0.00 in0.0 mm
10:15 AM 55.9°F13.3°C 43.9°F6.6°C 64% 3.5 mph WNW5.6 kmh WNW 3.5 mph5.6 kmh 30.27 in1025.1 mb - 0.00 in0.0 mm 0.00 in0.0 mm
10:20 AM 56.1°F13.4°C 35.6°F2.0°C 46% 3.5 mph WNW5.6 kmh WNW 3.5 mph5.6 kmh 30.27 in1025.1 mb - 0.00 in0.0 mm 0.00 in0.0 mm
10:25 AM 56.5°F13.6°C 37.0°F2.8°C 48% 3.5 mph WNW5.6 kmh WNW 3.5 mph5.6 kmh 30.27 in1025.1 mb - 0.00 in0.0 mm 0.00 in0.0 mm
10:30 AM 57.4°F14.1°C 39.4°F4.1°C 51% 2.3 mph WNW3.7 kmh WNW 2.3 mph3.7 kmh 30.27 in1025.1 mb - 0.00 in0.0 mm 0.00 in0.0 mm
10:35 AM 57.4°F14.1°C 39.4°F4.1°C 51% 2.3 mph WNW3.7 kmh WNW 2.3 mph3.7 kmh 30.27 in1025.1 mb - 0.00 in0.0 mm 0.00 in0.0 mm
10:40 AM 57.4°F14.1°C 35.6°F2.0°C 44% 4.6 mph W7.4 kmh W 4.6 mph7.4 kmh 30.27 in1025.1 mb - 0.00 in0.0 mm 0.00 in0.0 mm
10:45 AM 57.4°F14.1°C 35.6°F2.0°C 44% 4.6 mph W7.4 kmh W 4.6 mph7.4 kmh 30.27 in1025.1 mb - 0.00 in0.0 mm 0.00 in0.0 mm
10:50 AM 58.1°F14.5°C 35.7°F2.1°C 43% 5.8 mph WNW9.3 kmh WNW 5.8 mph9.3 kmh 30.27 in1025.1 mb - 0.00 in0.0 mm 0.00 in0.0 mm
10:55 AM 58.1°F14.5°C 35.7°F2.1°C 43% 5.8 mph WNW9.3 kmh WNW 5.8 mph9.3 kmh 30.27 in1025.1 mb - 0.00 in0.0 mm 0.00 in0.0 mm
11:00 AM 59.5°F15.3°C 35.8°F2.1°C 41% 3.5 mph W5.6 kmh W 3.5 mph5.6 kmh 30.27 in1025.1 mb - 0.00 in0.0 mm 0.00 in0.0 mm
11:10 AM 59.5°F15.3°C 35.8°F2.1°C 41% 3.5 mph W5.6 kmh W 3.5 mph5.6 kmh 30.27 in1025.1 mb - 0.00 in0.0 mm 0.00 in0.0 mm
11:15 AM 58.8°F14.9°C 33.9°F1.1°C 39% 3.5 mph NNW5.6 kmh NNW 3.5 mph5.6 kmh 30.27 in1025.1 mb - 0.00 in0.0 mm 0.00 in0.0 mm
11:20 AM 58.8°F14.9°C 33.9°F1.1°C 39% 3.5 mph NNW5.6 kmh NNW 3.5 mph5.6 kmh 30.27 in1025.1 mb - 0.00 in0.0 mm 0.00 in0.0 mm
11:25 AM 59.5°F15.3°C 33.9°F1.1°C 38% 4.6 mph NNW7.4 kmh NNW 4.6 mph7.4 kmh 30.27 in1025.1 mb - 0.00 in0.0 mm 0.00 in0.0 mm
11:30 AM 59.5°F15.3°C 33.9°F1.1°C 38% 4.6 mph NNW7.4 kmh NNW 4.6 mph7.4 kmh 30.27 in1025.1 mb - 0.00 in0.0 mm 0.00 in0.0 mm
11:35 AM 59.6°F15.3°C 33.9°F1.1°C 38% 4.6 mph NNW7.4 kmh NNW 4.6 mph7.4 kmh 30.27 in1025.1 mb - 0.00 in0.0 mm 0.00 in0.0 mm
11:40 AM 60.3°F15.7°C 33.9°F1.1°C 37% 3.5 mph NNW5.6 kmh NNW 3.5 mph5.6 kmh 30.27 in1025.1 mb - 0.00 in0.0 mm 0.00 in0.0 mm
11:45 AM 60.3°F15.7°C 33.9°F1.1°C 37% 3.5 mph NNW5.6 kmh NNW 3.5 mph5.6 kmh 30.27 in1025.1 mb - 0.00 in0.0 mm 0.00 in0.0 mm
11:50 AM 59.4°F15.2°C 33.7°F0.9°C 38% 3.5 mph NW5.6 kmh NW 3.5 mph5.6 kmh 30.27 in1025.1 mb - 0.00 in0.0 mm 0.00 in0.0 mm
11:55 AM 59.4°F15.2°C 33.7°F0.9°C 38% 3.5 mph NW5.6 kmh NW 3.5 mph5.6 kmh 30.27 in1025.1 mb - 0.00 in0.0 mm 0.00 in0.0 mm
12:00 PM 60.1°F15.6°C 33.7°F0.9°C 37% 3.5 mph WNW5.6 kmh WNW 3.5 mph5.6 kmh 30.27 in1025.1 mb - 0.00 in0.0 mm 0.00 in0.0 mm
12:10 PM 60.6°F15.9°C 33.5°F0.8°C 36% 4.6 mph NW7.4 kmh NW 4.6 mph7.4 kmh 30.27 in1025.1 mb - 0.00 in0.0 mm 0.00 in0.0 mm
12:15 PM 59.9°F15.5°C 33.5°F0.8°C 37% 4.6 mph NW7.4 kmh NW 4.6 mph7.4 kmh 30.27 in1025.1 mb - 0.00 in0.0 mm 0.00 in0.0 mm
12:20 PM 61.1°F16.2°C 35.3°F1.8°C 38% 4.6 mph WSW7.4 kmh WSW 4.6 mph7.4 kmh 30.27 in1025.1 mb - 0.00 in0.0 mm 0.00 in0.0 mm
12:25 PM 61.2°F16.2°C 35.3°F1.8°C 38% 4.6 mph WSW7.4 kmh WSW 4.6 mph7.4 kmh 30.27 in1025.1 mb - 0.00 in0.0 mm 0.00 in0.0 mm
12:30 PM 61.0°F16.1°C 31.6°F-0.2°C 33% 1.2 mph NW1.9 kmh NW 1.2 mph1.9 kmh 30.27 in1025.1 mb - 0.00 in0.0 mm 0.00 in0.0 mm
12:35 PM 60.6°F15.9°C 33.5°F0.8°C 36% 3.5 mph WSW5.6 kmh WSW 3.5 mph5.6 kmh 30.27 in1025.1 mb - 0.00 in0.0 mm 0.00 in0.0 mm
12:40 PM 60.6°F15.9°C 33.5°F0.8°C 36% 3.5 mph WSW5.6 kmh WSW 3.5 mph5.6 kmh 30.27 in1025.1 mb - 0.00 in0.0 mm 0.00 in0.0 mm
12:45 PM 61.3°F16.3°C 35.5°F1.9°C 38% 2.3 mph WNW3.7 kmh WNW 2.3 mph3.7 kmh 30.27 in1025.1 mb - 0.00 in0.0 mm 0.00 in0.0 mm
12:50 PM 61.0°F16.1°C 33.8°F1.0°C 36% 4.6 mph W7.4 kmh W 4.6 mph7.4 kmh 30.27 in1025.1 mb - 0.00 in0.0 mm 0.00 in0.0 mm
12:55 PM 61.0°F16.1°C 33.8°F1.0°C 36% 4.6 mph WNW7.4 kmh WNW 4.6 mph7.4 kmh 30.27 in1025.1 mb - 0.00 in0.0 mm 0.00 in0.0 mm
01:00 PM 61.0°F16.1°C 33.8°F1.0°C 36% 3.5 mph NW5.6 kmh NW 3.5 mph5.6 kmh 30.27 in1025.1 mb - 0.00 in0.0 mm 0.00 in0.0 mm
01:10 PM 61.5°F16.4°C 32.1°F0.1°C 33% 3.5 mph WSW5.6 kmh WSW 3.5 mph5.6 kmh 30.24 in1024.0 mb - 0.00 in0.0 mm 0.00 in0.0 mm
01:15 PM 61.5°F16.4°C 32.1°F0.1°C 33% 3.5 mph WSW5.6 kmh WSW 3.5 mph5.6 kmh 30.24 in1024.0 mb - 0.00 in0.0 mm 0.00 in0.0 mm
01:20 PM 61.9°F16.6°C 35.3°F1.8°C 37% 4.6 mph WNW7.4 kmh WNW 4.6 mph7.4 kmh 30.24 in1024.0 mb - 0.00 in0.0 mm 0.00 in0.0 mm
01:25 PM 62.2°F16.8°C 33.5°F0.8°C 34% 3.5 mph W5.6 kmh W 3.5 mph5.6 kmh 30.24 in1024.0 mb - 0.00 in0.0 mm 0.00 in0.0 mm
01:30 PM 62.2°F16.8°C 33.5°F0.8°C 34% 3.5 mph W5.6 kmh W 3.5 mph5.6 kmh 30.24 in1024.0 mb - 0.00 in0.0 mm 0.00 in0.0 mm
01:35 PM 61.9°F16.6°C 31.7°F-0.2°C 32% 3.5 mph W5.6 kmh W 3.5 mph5.6 kmh 30.24 in1024.0 mb - 0.00 in0.0 mm 0.00 in0.0 mm
01:40 PM 62.2°F16.8°C 33.5°F0.8°C 34% 6.9 mph NW11.1 kmh NW 6.9 mph11.1 kmh 30.24 in1024.0 mb - 0.00 in0.0 mm 0.00 in0.0 mm
01:45 PM 62.2°F16.8°C 32.0°F0.0°C 32% 4.6 mph NW7.4 kmh NW 6.9 mph11.1 kmh 30.24 in1024.0 mb - 0.00 in0.0 mm 0.00 in0.0 mm
01:50 PM 61.9°F16.6°C 31.7°F-0.2°C 32% 4.6 mph WNW7.4 kmh WNW 4.6 mph7.4 kmh 30.24 in1024.0 mb - 0.00 in0.0 mm 0.00 in0.0 mm
01:55 PM 62.2°F16.8°C 33.5°F0.8°C 34% 3.5 mph WSW5.6 kmh WSW 3.5 mph5.6 kmh 30.24 in1024.0 mb - 0.00 in0.0 mm 0.00 in0.0 mm
02:00 PM 61.7°F16.5°C 29.9°F-1.2°C 30% 3.5 mph W5.6 kmh W 3.5 mph5.6 kmh 30.24 in1024.0 mb - 0.00 in0.0 mm 0.00 in0.0 mm
02:10 PM 61.9°F16.6°C 30.1°F-1.1°C 30% 2.3 mph WNW3.7 kmh WNW 2.3 mph3.7 kmh 30.24 in1024.0 mb - 0.00 in0.0 mm 0.00 in0.0 mm
02:15 PM 62.2°F16.8°C 28.7°F-1.8°C 28% 3.5 mph N5.6 kmh N 3.5 mph5.6 kmh 30.24 in1024.0 mb - 0.00 in0.0 mm 0.00 in0.0 mm
02:20 PM 62.2°F16.8°C 29.6°F-1.3°C 29% 4.6 mph NNW7.4 kmh NNW 4.6 mph7.4 kmh 30.24 in1024.0 mb - 0.00 in0.0 mm 0.00 in0.0 mm
02:25 PM 62.2°F16.8°C 30.4°F-0.9°C 30% 4.6 mph NNW7.4 kmh NNW 4.6 mph7.4 kmh 30.24 in1024.0 mb - 0.00 in0.0 mm 0.00 in0.0 mm
02:30 PM 63.3°F17.4°C 32.1°F0.1°C 31% 5.8 mph NW9.3 kmh NW 5.8 mph9.3 kmh 30.24 in1024.0 mb - 0.00 in0.0 mm 0.00 in0.0 mm
02:35 PM 62.4°F16.9°C 32.1°F0.1°C 32% 3.5 mph NW5.6 kmh NW 3.5 mph5.6 kmh 30.24 in1024.0 mb - 0.00 in0.0 mm 0.00 in0.0 mm
02:40 PM 62.4°F16.9°C 32.1°F0.1°C 32% 3.5 mph NW5.6 kmh NW 3.5 mph5.6 kmh 30.24 in1024.0 mb - 0.00 in0.0 mm 0.00 in0.0 mm
02:45 PM 62.6°F17.0°C 29.9°F-1.2°C 29% 3.5 mph W5.6 kmh W 3.5 mph5.6 kmh 30.24 in1024.0 mb - 0.00 in0.0 mm 0.00 in0.0 mm
02:50 PM 63.3°F17.4°C 32.1°F0.1°C 31% 3.5 mph NW5.6 kmh NW 3.5 mph5.6 kmh 30.24 in1024.0 mb - 0.00 in0.0 mm 0.00 in0.0 mm
02:55 PM 63.3°F17.4°C 31.3°F-0.4°C 30% 5.8 mph NW9.3 kmh NW 8.1 mph13.0 kmh 30.24 in1024.0 mb - 0.00 in0.0 mm 0.00 in0.0 mm
03:00 PM 63.1°F17.3°C 30.3°F-0.9°C 29% 8.1 mph NW13.0 kmh NW 8.1 mph13.0 kmh 30.24 in1024.0 mb - 0.00 in0.0 mm 0.00 in0.0 mm
03:10 PM 62.8°F17.1°C 28.3°F-2.1°C 27% 4.6 mph W7.4 kmh W 4.6 mph7.4 kmh 30.24 in1024.0 mb - 0.00 in0.0 mm 0.00 in0.0 mm
03:15 PM 62.8°F17.1°C 28.3°F-2.1°C 27% 4.6 mph W7.4 kmh W 4.6 mph7.4 kmh 30.24 in1024.0 mb - 0.00 in0.0 mm 0.00 in0.0 mm
03:20 PM 63.9°F17.7°C 30.1°F-1.1°C 28% 3.5 mph W5.6 kmh W 3.5 mph5.6 kmh 30.24 in1024.0 mb - 0.00 in0.0 mm 0.00 in0.0 mm
03:25 PM 63.3°F17.4°C 28.7°F-1.8°C 27% 2.3 mph W3.7 kmh W 2.3 mph3.7 kmh 30.24 in1024.0 mb - 0.00 in0.0 mm 0.00 in0.0 mm
03:30 PM 63.4°F17.4°C 28.8°F-1.8°C 27% 2.3 mph WNW3.7 kmh WNW 5.8 mph9.3 kmh 30.24 in1024.0 mb - 0.00 in0.0 mm 0.00 in0.0 mm
03:35 PM 64.4°F18.0°C 28.7°F-1.8°C 26% 5.8 mph NW9.3 kmh NW 5.8 mph9.3 kmh 30.24 in1024.0 mb - 0.00 in0.0 mm 0.00 in0.0 mm
03:40 PM 64.6°F18.1°C 29.8°F-1.2°C 27% 2.3 mph WNW3.7 kmh WNW 2.3 mph3.7 kmh 30.24 in1024.0 mb - 0.00 in0.0 mm 0.00 in0.0 mm
03:45 PM 65.0°F18.3°C 30.2°F-1.0°C 27% 4.6 mph NW7.4 kmh NW 5.8 mph9.3 kmh 30.24 in1024.0 mb - 0.00 in0.0 mm 0.00 in0.0 mm
03:50 PM 65.1°F18.4°C 30.3°F-0.9°C 27% 5.8 mph NW9.3 kmh NW 5.8 mph9.3 kmh 30.24 in1024.0 mb - 0.00 in0.0 mm 0.00 in0.0 mm
03:55 PM 64.0°F17.8°C 28.4°F-2.0°C 26% 3.5 mph NW5.6 kmh NW 3.5 mph5.6 kmh 30.24 in1024.0 mb - 0.00 in0.0 mm 0.00 in0.0 mm
04:00 PM 64.2°F17.9°C 26.6°F-3.0°C 24% 3.5 mph N5.6 kmh N 3.5 mph5.6 kmh 30.21 in1023.0 mb - 0.00 in0.0 mm 0.00 in0.0 mm
04:10 PM 64.2°F17.9°C 23.4°F-4.8°C 21% 3.5 mph NW5.6 kmh NW 3.5 mph5.6 kmh 30.21 in1023.0 mb - 0.00 in0.0 mm 0.00 in0.0 mm
04:15 PM 64.8°F18.2°C 25.0°F-3.9°C 22% 5.8 mph WNW9.3 kmh WNW 5.8 mph9.3 kmh 30.21 in1023.0 mb - 0.00 in0.0 mm 0.00 in0.0 mm
04:20 PM 64.8°F18.2°C 25.1°F-3.8°C 22% 5.8 mph WNW9.3 kmh WNW 5.8 mph9.3 kmh 30.21 in1023.0 mb - 0.00 in0.0 mm 0.00 in0.0 mm
04:25 PM 64.9°F18.3°C 26.2°F-3.2°C 23% 4.6 mph W7.4 kmh W 4.6 mph7.4 kmh 30.21 in1023.0 mb - 0.00 in0.0 mm 0.00 in0.0 mm
04:30 PM 64.2°F17.9°C 23.4°F-4.8°C 21% 4.6 mph NW7.4 kmh NW 4.6 mph7.4 kmh 30.21 in1023.0 mb - 0.00 in0.0 mm 0.00 in0.0 mm
04:35 PM 63.9°F17.7°C 20.7°F-6.3°C 19% 4.6 mph NW7.4 kmh NW 4.6 mph7.4 kmh 30.21 in1023.0 mb - 0.00 in0.0 mm 0.00 in0.0 mm
04:40 PM 63.9°F17.7°C 20.7°F-6.3°C 19% 4.6 mph NW7.4 kmh NW 4.6 mph7.4 kmh 30.21 in1023.0 mb - 0.00 in0.0 mm 0.00 in0.0 mm
04:45 PM 64.4°F18.0°C 21.2°F-6.0°C 19% 3.5 mph WNW5.6 kmh WNW 3.5 mph5.6 kmh 30.21 in1023.0 mb - 0.00 in0.0 mm 0.00 in0.0 mm
04:50 PM 64.2°F17.9°C 23.4°F-4.8°C 21% 3.5 mph NW5.6 kmh NW 3.5 mph5.6 kmh 30.21 in1023.0 mb - 0.00 in0.0 mm 0.00 in0.0 mm